createdAt,value
2019-02-08T00:00:18.289Z,6.32
2019-02-08T00:03:22.193Z,6.33
2019-02-08T00:06:26.532Z,6.30
2019-02-08T00:09:30.420Z,6.37
2019-02-08T00:12:34.295Z,6.32
2019-02-08T00:15:38.307Z,6.29
2019-02-08T00:18:42.307Z,6.21
2019-02-08T00:21:46.225Z,6.23
2019-02-08T00:24:50.066Z,6.17
2019-02-08T00:27:53.938Z,6.16
2019-02-08T00:30:57.825Z,6.26
2019-02-08T00:34:01.761Z,6.18
2019-02-08T00:37:05.641Z,6.09
2019-02-08T00:40:11.815Z,6.15
2019-02-08T00:43:15.721Z,6.13
2019-02-08T00:46:19.692Z,6.05
2019-02-08T00:49:23.524Z,6.10
2019-02-08T00:52:27.358Z,6.07
2019-02-08T00:55:31.378Z,6.16
2019-02-08T00:58:35.237Z,6.15
2019-02-08T01:01:39.171Z,6.20
2019-02-08T01:04:43.083Z,6.13
2019-02-08T01:07:47.493Z,6.13
2019-02-08T01:10:51.611Z,6.19
2019-02-08T01:13:55.470Z,6.22
2019-02-08T01:16:59.293Z,6.23
2019-02-08T01:20:03.298Z,6.08
2019-02-08T01:23:07.357Z,6.07
2019-02-08T01:26:11.326Z,6.07
2019-02-08T01:29:15.211Z,6.02
2019-02-08T01:32:19.074Z,6.01
2019-02-08T01:35:24.357Z,6.05
2019-02-08T01:38:28.315Z,6.04
2019-02-08T01:41:32.138Z,6.05
2019-02-08T01:44:36.176Z,5.86
2019-02-08T01:47:40.009Z,5.92
2019-02-08T01:50:43.913Z,5.80
2019-02-08T01:53:48.894Z,5.80
2019-02-08T01:56:53.047Z,5.84
2019-02-08T01:59:56.935Z,5.82
2019-02-08T02:03:02.796Z,5.81
2019-02-08T02:06:06.798Z,5.86
2019-02-08T02:09:10.888Z,5.80
2019-02-08T02:12:14.765Z,5.88
2019-02-08T02:15:18.882Z,5.93
2019-02-08T02:18:22.778Z,5.92
2019-02-08T02:21:26.593Z,5.99
2019-02-08T02:24:30.540Z,6.07
2019-02-08T02:27:34.384Z,5.99
2019-02-08T02:30:38.505Z,6.02
2019-02-08T02:33:42.315Z,6.04
2019-02-08T02:36:46.213Z,6.05
2019-02-08T02:39:50.087Z,5.97
2019-02-08T02:42:54.802Z,6.01
2019-02-08T02:45:58.708Z,6.13
2019-02-08T02:49:02.689Z,6.09
2019-02-08T02:52:06.543Z,5.97
2019-02-08T02:55:11.262Z,6.05
2019-02-08T02:58:15.230Z,6.15
2019-02-08T03:01:19.058Z,6.08
2019-02-08T03:04:23.081Z,5.96
2019-02-08T03:07:26.908Z,6.04
2019-02-08T03:10:30.809Z,6.02
2019-02-08T03:13:34.652Z,5.96
2019-02-08T03:16:38.560Z,6.01
2019-02-08T03:19:42.558Z,6.03
2019-02-08T03:22:46.539Z,6.01
2019-02-08T03:25:50.506Z,6.08
2019-02-08T03:28:54.418Z,5.97
2019-02-08T03:31:58.218Z,5.97
2019-02-08T03:35:02.229Z,5.97
2019-02-08T03:38:06.387Z,5.99
2019-02-08T03:41:10.377Z,6.02
2019-02-08T03:44:14.449Z,6.04
2019-02-08T03:47:18.321Z,6.03
2019-02-08T03:50:22.627Z,6.03
2019-02-08T03:53:26.515Z,6.03
2019-02-08T03:56:30.345Z,5.98
2019-02-08T03:59:34.624Z,5.91
2019-02-08T04:02:38.607Z,5.91
2019-02-08T04:05:42.566Z,5.86
2019-02-08T04:08:46.407Z,5.82
2019-02-08T04:11:50.276Z,5.81
2019-02-08T04:14:54.168Z,5.84
2019-02-08T04:17:58.063Z,5.75
2019-02-08T04:21:01.982Z,5.91
2019-02-08T04:24:05.944Z,5.79
2019-02-08T04:27:09.783Z,5.90
2019-02-08T04:30:20.278Z,5.83
2019-02-08T04:33:24.090Z,5.83
2019-02-08T04:36:27.899Z,5.78
2019-02-08T04:39:31.722Z,5.84
2019-02-08T04:42:35.543Z,5.90
2019-02-08T04:45:39.435Z,5.80
2019-02-08T04:48:43.325Z,5.82
2019-02-08T04:51:47.130Z,5.87
2019-02-08T04:54:50.949Z,5.84
2019-02-08T04:57:54.835Z,5.93
2019-02-08T05:00:58.794Z,5.84
2019-02-08T05:04:02.580Z,5.85
2019-02-08T05:07:06.554Z,5.78
2019-02-08T05:10:11.866Z,5.82
2019-02-08T05:13:15.825Z,5.80
2019-02-08T05:16:19.824Z,5.84
2019-02-08T05:19:23.644Z,5.79
2019-02-08T05:22:27.541Z,5.80
2019-02-08T05:25:31.338Z,5.80
2019-02-08T05:28:35.226Z,5.89
2019-02-08T05:31:39.036Z,5.77
2019-02-08T05:34:42.938Z,5.78
2019-02-08T05:37:46.759Z,5.80
2019-02-08T05:40:50.559Z,5.77
2019-02-08T05:43:54.470Z,5.80
2019-02-08T05:46:58.335Z,5.80
2019-02-08T05:50:02.159Z,5.87
2019-02-08T05:53:06.262Z,5.78
2019-02-08T05:56:10.058Z,5.78
2019-02-08T05:59:14.060Z,5.77
2019-02-08T06:02:18.054Z,5.88
2019-02-08T06:05:22.453Z,5.75
2019-02-08T06:08:26.359Z,5.64
2019-02-08T06:11:30.217Z,5.71
2019-02-08T06:14:34.230Z,5.81
2019-02-08T06:17:38.187Z,5.76
2019-02-08T06:20:42.562Z,5.79
2019-02-08T06:23:46.349Z,5.64
2019-02-08T06:26:50.237Z,5.79
2019-02-08T06:29:54.068Z,5.69
2019-02-08T06:32:58.007Z,5.67
2019-02-08T06:36:01.912Z,5.58
2019-02-08T06:39:09.010Z,5.65
2019-02-08T06:42:12.837Z,5.74
2019-02-08T06:45:18.162Z,5.74
2019-02-08T06:48:22.145Z,5.64
2019-02-08T06:51:26.003Z,5.65
2019-02-08T06:54:31.272Z,5.66
2019-02-08T06:57:40.318Z,5.67
2019-02-08T07:01:18.073Z,5.66
2019-02-08T07:04:30.054Z,5.71
2019-02-08T07:07:47.920Z,5.66
2019-02-08T07:11:14.050Z,5.68
2019-02-08T07:14:43.060Z,5.63
2019-02-08T07:18:08.758Z,5.69
2019-02-08T07:21:31.899Z,5.67
2019-02-08T07:24:57.747Z,5.61
2019-02-08T07:28:19.230Z,5.69
2019-02-08T07:31:41.057Z,5.69
2019-02-08T07:35:19.099Z,5.65
2019-02-08T07:38:35.791Z,5.64
2019-02-08T07:42:02.344Z,5.66
2019-02-08T07:45:21.101Z,5.70
2019-02-08T07:48:43.797Z,5.80
2019-02-08T07:51:56.470Z,5.78
2019-02-08T07:55:26.204Z,5.79
2019-02-08T07:59:05.095Z,5.76
2019-02-08T08:02:28.013Z,5.76
2019-02-08T08:05:39.982Z,5.74
2019-02-08T08:09:01.975Z,5.76
2019-02-08T08:12:32.142Z,5.74
2019-02-08T08:16:04.060Z,5.76
2019-02-08T08:19:25.935Z,5.80
2019-02-08T08:22:55.256Z,5.87
2019-02-08T08:26:13.875Z,5.99
2019-02-08T08:29:52.936Z,6.01
2019-02-08T08:33:10.961Z,6.06
2019-02-08T08:37:05.241Z,6.08
2019-02-08T08:40:41.536Z,6.04
2019-02-08T08:44:37.681Z,6.11
2019-02-08T08:48:14.507Z,6.11
2019-02-08T08:51:55.604Z,6.20
2019-02-08T08:55:42.136Z,6.13
2019-02-08T08:59:36.368Z,6.10
2019-02-08T09:03:22.450Z,6.12
2019-02-08T09:06:46.426Z,6.08
2019-02-08T09:10:18.687Z,6.10
2019-02-08T09:14:00.752Z,6.03
2019-02-08T09:17:44.697Z,6.04
2019-02-08T09:21:22.527Z,6.05
2019-02-08T09:25:12.629Z,6.01
2019-02-08T09:28:27.210Z,6.06
2019-02-08T09:32:07.241Z,6.01
2019-02-08T09:35:41.810Z,6.05
2019-02-08T09:39:20.016Z,6.11
2019-02-08T09:42:49.959Z,6.07
2019-02-08T09:46:34.694Z,6.09
2019-02-08T09:50:23.438Z,6.15
2019-02-08T09:54:10.073Z,6.19
2019-02-08T09:57:47.245Z,6.22
2019-02-08T10:01:28.173Z,6.29
2019-02-08T10:05:08.395Z,6.38
2019-02-08T10:08:37.790Z,6.47
2019-02-08T10:12:24.465Z,6.53
2019-02-08T10:16:20.373Z,6.56
2019-02-08T10:19:56.944Z,6.65
2019-02-08T10:23:28.523Z,6.71
2019-02-08T10:27:15.365Z,6.64
2019-02-08T10:30:49.383Z,6.72
2019-02-08T10:34:28.861Z,6.76
2019-02-08T10:38:12.264Z,6.75
2019-02-08T10:42:05.561Z,6.77
2019-02-08T10:45:45.707Z,6.80
2019-02-08T10:49:29.993Z,6.81
2019-02-08T10:53:09.465Z,6.77
2019-02-08T10:57:04.019Z,6.84
2019-02-08T11:00:49.223Z,6.88
2019-02-08T11:04:42.218Z,6.89
2019-02-08T11:08:30.063Z,6.89
2019-02-08T11:12:16.611Z,6.84
2019-02-08T11:15:56.828Z,6.95
2019-02-08T11:19:18.482Z,7.02
2019-02-08T11:22:22.849Z,6.97
2019-02-08T11:25:26.786Z,6.94
2019-02-08T11:28:30.586Z,6.85
2019-02-08T11:31:34.541Z,6.87
2019-02-08T11:34:38.461Z,6.84
2019-02-08T11:37:42.516Z,6.82
2019-02-08T11:40:46.462Z,6.83
2019-02-08T11:43:50.357Z,6.84
2019-02-08T11:46:54.326Z,6.81
2019-02-08T11:49:58.260Z,6.85
2019-02-08T11:53:02.089Z,6.86
2019-02-08T11:56:06.763Z,6.82
2019-02-08T11:59:10.687Z,6.87
2019-02-08T12:02:14.570Z,6.89
2019-02-08T12:05:18.543Z,6.86
2019-02-08T12:08:22.442Z,6.89
2019-02-08T12:11:26.385Z,6.92
2019-02-08T12:14:30.594Z,6.86
2019-02-08T12:17:34.618Z,6.88
2019-02-08T12:20:38.701Z,6.83
2019-02-08T12:23:42.580Z,6.83
2019-02-08T12:26:46.571Z,6.77
2019-02-08T12:29:50.377Z,6.80
2019-02-08T12:32:54.188Z,6.82
2019-02-08T12:35:58.026Z,6.84
2019-02-08T12:39:01.825Z,6.80
2019-02-08T12:42:05.819Z,6.78
2019-02-08T12:45:09.883Z,6.82
2019-02-08T12:48:13.705Z,6.81
2019-02-08T12:51:17.968Z,6.78
2019-02-08T12:54:21.945Z,6.86
2019-02-08T12:57:25.784Z,6.87
2019-02-08T13:00:29.751Z,6.83
2019-02-08T13:03:33.638Z,6.84
2019-02-08T13:06:37.517Z,6.85
2019-02-08T13:09:41.332Z,6.86
2019-02-08T13:12:45.391Z,6.85
2019-02-08T13:15:49.270Z,6.85
2019-02-08T13:18:53.081Z,6.85
2019-02-08T13:21:56.923Z,6.89
2019-02-08T13:25:00.793Z,6.90
2019-02-08T13:28:04.682Z,6.89
2019-02-08T13:31:08.681Z,6.85
2019-02-08T13:34:12.668Z,6.90
2019-02-08T13:37:16.610Z,6.96
2019-02-08T13:40:21.551Z,6.97
2019-02-08T13:43:25.324Z,7.02
2019-02-08T13:46:29.186Z,6.96
2019-02-08T13:49:33.009Z,6.92
2019-02-08T13:52:36.905Z,7.01
2019-02-08T13:55:40.710Z,6.99
2019-02-08T13:58:44.630Z,7.01
2019-02-08T14:01:48.511Z,6.96
2019-02-08T14:04:52.337Z,6.98
2019-02-08T14:07:56.237Z,6.99
2019-02-08T14:11:00.050Z,7.05
2019-02-08T14:14:04.076Z,7.05
2019-02-08T14:17:08.070Z,7.08
2019-02-08T14:20:15.007Z,7.09
2019-02-08T14:23:18.847Z,7.13
2019-02-08T14:26:22.744Z,7.08
2019-02-08T14:29:26.624Z,7.10
2019-02-08T14:32:30.477Z,7.15
2019-02-08T14:35:34.722Z,7.18
2019-02-08T14:38:38.698Z,7.15
2019-02-08T14:41:42.519Z,7.14
2019-02-08T14:44:46.402Z,7.18
2019-02-08T14:47:50.297Z,7.20
2019-02-08T14:50:54.128Z,7.26
2019-02-08T14:53:58.036Z,7.19
2019-02-08T14:57:01.887Z,7.18
2019-02-08T15:00:09.668Z,7.17
2019-02-08T15:03:13.491Z,7.20
2019-02-08T15:06:17.438Z,7.22
2019-02-08T15:09:21.284Z,7.23
2019-02-08T15:12:25.134Z,7.20
2019-02-08T15:15:29.058Z,7.23
2019-02-08T15:18:32.902Z,7.24
2019-02-08T15:21:36.838Z,7.18
2019-02-08T15:24:40.662Z,7.17
2019-02-08T15:27:44.481Z,7.16
2019-02-08T15:30:48.385Z,7.14
2019-02-08T15:33:52.277Z,7.12
2019-02-08T15:36:56.159Z,7.15
2019-02-08T15:40:00.249Z,7.16
2019-02-08T15:43:04.552Z,7.16
2019-02-08T15:46:08.558Z,7.14
2019-02-08T15:49:12.561Z,7.14
2019-02-08T15:52:16.515Z,7.23
2019-02-08T15:55:22.811Z,7.15
2019-02-08T15:58:26.815Z,7.18
2019-02-08T16:01:30.762Z,7.15
2019-02-08T16:04:34.626Z,7.08
2019-02-08T16:07:38.596Z,7.14
2019-02-08T16:10:42.417Z,7.22
2019-02-08T16:13:46.259Z,7.18
2019-02-08T16:16:50.239Z,7.18
2019-02-08T16:19:55.039Z,7.19
2019-02-08T16:22:59.261Z,7.19
2019-02-08T16:26:03.370Z,7.14
2019-02-08T16:29:07.604Z,7.15
2019-02-08T16:32:11.512Z,7.18
2019-02-08T16:35:16.258Z,7.27
2019-02-08T16:38:20.241Z,7.19
2019-02-08T16:41:24.131Z,7.10
2019-02-08T16:44:28.096Z,7.12
2019-02-08T16:47:32.037Z,7.14
2019-02-08T16:50:36.077Z,7.20
2019-02-08T16:53:39.914Z,7.18
2019-02-08T16:56:43.706Z,7.15
2019-02-08T16:59:47.676Z,7.15
2019-02-08T17:02:51.699Z,7.19
2019-02-08T17:05:55.494Z,7.16
2019-02-08T17:08:59.333Z,7.15
2019-02-08T17:12:03.151Z,7.21
2019-02-08T17:15:08.353Z,7.21
2019-02-08T17:18:12.336Z,7.24
2019-02-08T17:21:16.353Z,7.19
2019-02-08T17:24:20.204Z,7.20
2019-02-08T17:27:24.686Z,7.17
2019-02-08T17:30:28.742Z,7.12
2019-02-08T17:33:32.545Z,7.18
2019-02-08T17:36:36.473Z,7.20
2019-02-08T17:39:40.454Z,7.15
2019-02-08T17:42:44.378Z,7.14
2019-02-08T17:45:48.259Z,7.17
2019-02-08T17:48:52.174Z,7.18
2019-02-08T17:51:55.980Z,7.24
2019-02-08T17:54:59.874Z,7.22
2019-02-08T17:58:04.034Z,7.15
2019-02-08T18:01:07.994Z,7.18
2019-02-08T18:04:11.830Z,7.23
2019-02-08T18:07:15.703Z,7.19
2019-02-08T18:10:20.334Z,7.18
2019-02-08T18:13:24.177Z,7.24
2019-02-08T18:16:28.009Z,7.22
2019-02-08T18:19:31.829Z,7.27
2019-02-08T18:22:35.684Z,7.23
2019-02-08T18:25:39.566Z,7.19
2019-02-08T18:28:43.385Z,7.21
2019-02-08T18:31:47.210Z,7.14
2019-02-08T18:34:51.053Z,7.13
2019-02-08T18:37:54.955Z,7.15
2019-02-08T18:40:58.775Z,7.16
2019-02-08T18:44:02.582Z,7.17
2019-02-08T18:47:06.506Z,7.16
2019-02-08T18:50:17.979Z,7.19
2019-02-08T18:53:21.962Z,7.20
2019-02-08T18:56:25.948Z,7.22
2019-02-08T18:59:29.787Z,7.16
2019-02-08T19:02:33.709Z,7.18
2019-02-08T19:05:37.687Z,7.22
2019-02-08T19:08:41.476Z,7.17
2019-02-08T19:11:45.286Z,7.19
2019-02-08T19:14:49.112Z,7.16
2019-02-08T19:17:53.158Z,7.18
2019-02-08T19:20:56.988Z,7.16
2019-02-08T19:24:00.784Z,7.18
2019-02-08T19:27:04.752Z,7.17
2019-02-08T19:30:20.724Z,7.20
2019-02-08T19:33:24.516Z,7.13
2019-02-08T19:36:28.377Z,7.18
2019-02-08T19:39:32.272Z,7.10
2019-02-08T19:42:36.090Z,7.13
2019-02-08T19:45:39.949Z,7.14
2019-02-08T19:48:43.755Z,7.13
2019-02-08T19:51:47.549Z,7.18
2019-02-08T19:54:51.417Z,7.17
2019-02-08T19:57:55.480Z,7.15
2019-02-08T20:00:59.294Z,7.18
2019-02-08T20:04:03.084Z,7.18
2019-02-08T20:07:07.210Z,7.10
2019-02-08T20:10:13.943Z,7.13
2019-02-08T20:13:17.996Z,7.07
2019-02-08T20:16:21.867Z,7.17
2019-02-08T20:19:25.817Z,7.09
2019-02-08T20:22:29.786Z,7.19
2019-02-08T20:25:34.658Z,7.20
2019-02-08T20:28:42.520Z,7.18
2019-02-08T20:31:44.122Z,7.19
2019-02-08T20:34:47.890Z,7.18
2019-02-08T20:37:52.064Z,7.21
2019-02-08T20:40:55.935Z,7.22
2019-02-08T20:43:59.760Z,7.25
2019-02-08T20:47:03.586Z,7.25
2019-02-08T20:50:08.363Z,7.32
2019-02-08T20:53:12.308Z,7.32
2019-02-08T20:56:16.108Z,7.33
2019-02-08T20:59:20.008Z,7.33
2019-02-08T21:02:24.152Z,7.37
2019-02-08T21:05:29.255Z,7.42
2019-02-08T21:08:33.201Z,7.43
2019-02-08T21:11:37.106Z,7.49
2019-02-08T21:14:41.172Z,7.50
2019-02-08T21:17:44.993Z,7.48
2019-02-08T21:20:49.219Z,7.48
2019-02-08T21:23:53.093Z,7.56
2019-02-08T21:26:56.893Z,7.56
2019-02-08T21:30:00.754Z,7.55
2019-02-08T21:33:05.488Z,7.59
2019-02-08T21:36:09.373Z,7.57
2019-02-08T21:39:13.315Z,7.57
2019-02-08T21:42:17.190Z,7.63
2019-02-08T21:45:30.075Z,7.60
2019-02-08T21:48:33.871Z,7.60
2019-02-08T21:51:37.694Z,7.58
2019-02-08T21:54:41.509Z,7.59
2019-02-08T21:57:45.352Z,7.62
2019-02-08T22:00:49.314Z,7.60
2019-02-08T22:03:53.189Z,7.64
2019-02-08T22:06:57.002Z,7.60
2019-02-08T22:10:00.946Z,7.51
2019-02-08T22:13:05.245Z,7.60
2019-02-08T22:16:09.115Z,7.52
2019-02-08T22:19:12.972Z,7.50
2019-02-08T22:22:16.786Z,7.54
2019-02-08T22:25:21.819Z,7.54
2019-02-08T22:28:25.693Z,7.48
2019-02-08T22:31:29.616Z,7.50
2019-02-08T22:34:33.500Z,7.43
2019-02-08T22:37:37.467Z,7.41
2019-02-08T22:40:41.330Z,7.42
2019-02-08T22:43:45.176Z,7.38
2019-02-08T22:46:49.037Z,7.47
2019-02-08T22:49:52.937Z,7.42
2019-02-08T22:52:56.931Z,7.38
2019-02-08T22:56:00.743Z,7.40
2019-02-08T22:59:05.066Z,7.36
2019-02-08T23:02:09.411Z,7.34
2019-02-08T23:05:14.834Z,7.32
2019-02-08T23:08:18.800Z,7.34
2019-02-08T23:11:22.858Z,7.30
2019-02-08T23:14:26.660Z,7.31
2019-02-08T23:17:30.535Z,7.30
2019-02-08T23:20:34.524Z,7.31
2019-02-08T23:23:38.385Z,7.25
2019-02-08T23:26:42.284Z,7.28
2019-02-08T23:29:46.085Z,7.25
2019-02-08T23:32:50.041Z,7.30
2019-02-08T23:35:53.923Z,7.28
2019-02-08T23:38:57.726Z,7.25
2019-02-08T23:42:01.605Z,7.36
2019-02-08T23:45:07.110Z,7.30
2019-02-08T23:48:11.010Z,7.29
2019-02-08T23:51:14.891Z,7.33
2019-02-08T23:54:18.724Z,7.25
2019-02-08T23:57:22.520Z,7.25
